< < Back
Terminal Aerodrome Forecast


Current Version              Previous Versions:   1  2  3  4  5  6  7  8  9  

Terminal Aerodrome Forecast

803
FTUS42 KCHS 281644 AAB
TAFCHS
TAF AMD
KCHS 281644Z 2817/2912 04010KT P6SM VCSH SCT035 BKN080
      TEMPO 2817/2818 6SM -SHRA BKN030
     FM281900 07010KT P6SM SCT040
     FM290200 06004KT P6SM SKC=

Latest METAR

509
SAUS80 KWBC 282000
MTRCHS
METAR KCHS 281956Z 05013KT 10SM -TSRA FEW020 SCT035CB SCT080 BKN250
30/24 A3006 RMK AO2 LTG DSNT NE RAE18B55 SLP179 OCNL LTGCGIC
E-SE TS E-SE MOV SW CB DSNT NW P0000 T03000239


USA.gov is the U.S. government's official web portal to all federal, state and local government web resources and services.